Aérodrome :
LOGIN :

S'inscrire | Disclaimer

   EN    FR    IT 

 










Légende :    VFR   VFR Marginal   IFR   IFR Intensif   IFR Très Intensif
Visi : 
Plafond : 
>= 8 km
>= 3000ft
5 à 8 km
1000 à 3000 ft
1500m à 5 km
500 à 1000 ft
800 à 1500m
200 à 500 ft
< 800m
< 200 ft
Symboles :   Orages  Brouillard  Fortes neiges  Fortes précipitations  Vent > 20 kt
SIGMETs :   Divers  Orages  Givrage  Turbulence  Onde Orograph.  Cendres Volcan.






- Altitude de l'aérodrome : 47 ft
- Code IATA : BDS


LIBR - Casale Arpt. Brindisi

DERNIER METAR :
  • 282220Z AUTO VRB01KT 9999 NCD 19/16 Q1014

METARs EXPIRÉS :
  • 282150Z AUTO 21003KT 9999 NCD 19/16 Q1014
  • 282120Z AUTO 17003KT 9999 NCD 19/16 Q1014
  • 282050Z 18004KT CAVOK 19/15 Q1014
  • 282020Z 19003KT CAVOK 20/15 Q1014
  • 281950Z 17004KT CAVOK 20/15 Q1013
  • 281920Z 19004KT CAVOK 21/14 Q1013
  • 281850Z 20007KT CAVOK 22/14 Q1013
  • 281820Z 20006KT 170V230 CAVOK 22/14 Q1013
  • 281750Z 22008KT CAVOK 23/14 Q1013

TAF TAF LIBR
Valide du 28 à 18h jusqu'au 29 à 18h UTC


281700Z 2818/2918 22007KT 9999 FEW030
BECMG 2908/2910 03010KT
TEMPO 2909/2914 TSRA
BECMG 2914/2916 VRB05KT



MET'MAP, la Météo Aéronautique d'un coup d'oeil ! - Copyright ORBIFLY Décembre 2007 - Disclaimer

ORBIFLY MET'MAP TEAM :

Programmation & Développement : Alexandra Zaïnal
Sur une idée originale de : Baudouin d'Aumeries
Soutien technique & logistique : Manuel Goepfert
Assistance : Marc-Olivier Méhu




SOURCES & CREDITS :

   NOAA